Kathy C — 2CTI7 — position and weather

sailwx.info

Track history (hours):
 
Tides and Currents Weather Stations Pressure Air Temp Water Temp Dewpoint Dewpoint Depression Visibility Wind Speed Wind Dir Waves Ship Positions

Kathy C

Last reported at 2017-Nov-19 06:48 UTC. Time now 2017-Nov-19 10:49 UTC.
Position N 46°55' W 006°51'.

Length 106 m; draft 6.8 m.

Type: Cargo ship. MMSI: 235075591.

Date/timePositionNaut miles runAvg speedWind from/ knotsBaromVisibWave heightAir tempDewpointWater temp
2017-Nov-19 06:48N 46°55' W 006°51'410.2
2017-Nov-19 06:22N 46°59' W 006°49'810.1
2017-Nov-19 05:37N 47°06' W 006°45'312.9
2017-Nov-19 05:22N 47°09' W 006°44'4 8.8
2017-Nov-19 04:52N 47°13' W 006°42'4 9.6
2017-Nov-19 04:26N 47°17' W 006°40'4 9.5
2017-Nov-19 04:00N 47°21' W 006°38'6 9.1
2017-Nov-19 03:20N 47°27' W 006°35'3 9.2
2017-Nov-19 02:59N 47°30' W 006°33'5 9.2
2017-Nov-19 02:30N 47°34' W 006°31'4 8.7
2017-Nov-19 01:59N 47°38' W 006°29'4 8.6
2017-Nov-19 01:30N 47°42' W 006°27'6 8.9
2017-Nov-19 00:51N 47°48' W 006°25'4 9.2
2017-Nov-19 00:22N 47°52' W 006°23'7 9.6
2017-Nov-18 23:37N 47°59' W 006°20'1 9.8
2017-Nov-18 23:29N 48°00' W 006°19'510.1
2017-Nov-18 23:01N 48°05' W 006°17'510.5
2017-Nov-18 22:30N 48°10' W 006°15'611.1
2017-Nov-18 21:58N 48°15' W 006°12'511.2
2017-Nov-18 21:31N 48°20' W 006°09'1111.6
2017-Nov-18 20:33N 48°31' W 006°04'211.5
2017-Nov-18 20:22N 48°33' W 006°03'1111.3
2017-Nov-18 19:24N 48°43' W 005°56'510.8
2017-Nov-18 18:58N 48°47' W 005°53'610.4
2017-Nov-18 18:25N 48°52' W 005°49'4 9.4
2017-Nov-18 18:00N 48°55' W 005°46'710.0
2017-Nov-18 17:20N 48°59' W 005°37'2 6.9
2017-Nov-18 16:59N 49°00' W 005°34'5 8.3
2017-Nov-18 16:22N 49°03' W 005°27'8 8.2
2017-Nov-18 15:24N 49°07' W 005°17'4 8.3
2017-Nov-18 14:52N 49°09' W 005°11'6 8.5
2017-Nov-18 14:12N 49°12' W 005°03'7 9.0
2017-Nov-18 13:26N 49°15' W 004°54'6 9.6
2017-Nov-18 12:50N 49°18' W 004°47'310.0
2017-Nov-18 12:30N 49°20' W 004°42'510.5
2017-Nov-18 12:00N 49°23' W 004°35'610.8
2017-Nov-18 11:30N 49°25' W 004°28'911.1
2017-Nov-18 10:43N 49°30' W 004°16'311.4
2017-Nov-18 10:29N 49°31' W 004°13'511.1
2017-Nov-18 10:01N 49°34' W 004°06'1110.9
2017-Nov-18 09:01N 49°39' W 003°51'110.3
2017-Nov-18 08:56N 49°40' W 003°50'25 9.4
2017-Nov-18 06:18N 49°52' W 003°17'4 8.6
2017-Nov-18 05:51N 49°54' W 003°12'3 8.6
2017-Nov-18 05:28N 49°55' W 003°08'4 8.8
2017-Nov-18 05:00N 49°58' W 003°02'5 9.3
2017-Nov-18 04:30N 49°60' W 002°56'8 9.9
2017-Nov-18 03:42N 50°02' W 002°44'310.8
2017-Nov-18 03:26N 50°03' W 002°40'3012.7
2017-Nov-18 01:05N 50°11' W 001°55'113.6
2017-Nov-18 00:59N 50°11' W 001°53'813.3
2017-Nov-18 00:21N 50°13' W 001°40'812.6
2017-Nov-17 23:45N 50°15' W 001°28'312.0
2017-Nov-17 23:29N 50°16' W 001°24'47 8.6
2017-Nov-17 17:59N 50°28' W 000°12'5 9.8
2017-Nov-17 17:31N 50°29' W 000°05'510.5
2017-Nov-17 17:00N 50°31' E 000°03'611.1
2017-Nov-17 16:30N 50°32' E 000°12'611.4
2017-Nov-17 16:01N 50°34' E 000°20'611.8
2017-Nov-17 15:30N 50°35' E 000°29'611.4
2017-Nov-17 15:00N 50°38' E 000°37'611.4
2017-Nov-17 14:30N 50°41' E 000°44'611.1
2017-Nov-17 14:00N 50°45' E 000°51'510.7
2017-Nov-17 13:30N 50°48' E 000°58'22 8.9
2017-Nov-17 11:03N 51°02' E 001°24'0 8.3
2017-Nov-17 11:00N 51°03' E 001°25'5 8.9
2017-Nov-17 10:30N 51°06' E 001°30'5 9.4
2017-Nov-17 10:00N 51°08' E 001°36'5 9.8
2017-Nov-17 09:30N 51°11' E 001°42'510.9
2017-Nov-17 09:00N 51°16' E 001°47'612.1
2017-Nov-17 08:31N 51°21' E 001°52'612.7
2017-Nov-17 08:00N 51°27' E 001°57'612.6
2017-Nov-17 07:30N 51°31' E 002°04'612.4
2017-Nov-17 07:00N 51°36' E 002°10'249 9.3
2017-Nov-16 04:06N 54°02' E 007°44'2 9.9
2017-Nov-16 03:57N 54°02' E 007°47'510.4
2017-Nov-16 03:30N 54°01' E 007°55'510.7
2017-Nov-16 03:00N 54°01' E 008°04'510.5
2017-Nov-16 02:31N 54°00' E 008°13'611.0
2017-Nov-16 02:00N 53°60' E 008°22'613.0
2017-Nov-16 01:30N 53°58' E 008°33'612.3
2017-Nov-16 01:00N 53°54' E 008°41'611.2
2017-Nov-16 00:30N 53°51' E 008°48'510.3
2017-Nov-16 00:00N 53°51' E 008°57'5 9.1
2017-Nov-15 23:30N 53°52' E 009°04'3 6.3
2017-Nov-15 23:01N 53°54' E 009°09'0 0.0
2017-Nov-15 22:30N 53°54' E 009°09'0 0.3
2017-Nov-15 22:01N 53°54' E 009°09'3 5.9
2017-Nov-15 21:30N 53°56' E 009°13'4 7.9
2017-Nov-15 21:00N 53°59' E 009°17'4 8.2
2017-Nov-15 20:30N 54°03' E 009°18'4 8.2
2017-Nov-15 20:00N 54°07' E 009°20'3 5.4
2017-Nov-15 19:30N 54°09' E 009°22'3 6.6
2017-Nov-15 19:00N 54°11' E 009°27'3 6.9
2017-Nov-15 18:30N 54°12' E 009°33'0 0.0
2017-Nov-15 18:00N 54°12' E 009°33'0 0.9
2017-Nov-15 17:30N 54°12' E 009°33'3 6.0
2017-Nov-15 17:00N 54°14' E 009°37'4 7.4
2017-Nov-15 16:30N 54°17' E 009°40'3 7.0
2017-Nov-15 16:01N 54°20' E 009°44'40 4.6
2017-Nov-15 07:20N 54°35' E 010°48'310.7
2017-Nov-15 07:00N 54°36' E 010°54'510.8
2017-Nov-15 06:30N 54°36' E 011°03'510.4
2017-Nov-15 06:00N 54°36' E 011°12'510.3
2017-Nov-15 05:30N 54°34' E 011°20'5 9.8
2017-Nov-15 05:00N 54°32' E 011°28'510.1
2017-Nov-15 04:30N 54°30' E 011°36'510.3
2017-Nov-15 04:00N 54°27' E 011°44'510.2
2017-Nov-15 03:30N 54°27' E 011°52'85 9.5
2017-Nov-14 18:36N 55°04' E 014°03'3 7.5
2017-Nov-14 18:16N 55°06' E 014°07'3 7.1
2017-Nov-14 17:52N 55°08' E 014°10'3 7.2
2017-Nov-14 17:30N 55°10' E 014°13'4 6.7
2017-Nov-14 16:52N 55°13' E 014°18'5 6.8
2017-Nov-14 16:11N 55°17' E 014°23'1 7.3
2017-Nov-14 16:00N 55°18' E 014°25'4 7.2
2017-Nov-14 15:30N 55°21' E 014°28'4 7.8
2017-Nov-14 15:00N 55°24' E 014°33'4 7.7
2017-Nov-14 14:30N 55°26' E 014°37'4 7.9
2017-Nov-14 13:59N 55°29' E 014°43'5 8.6
2017-Nov-14 13:26N 55°31' E 014°51'7 9.0
2017-Nov-14 12:40N 55°34' E 015°01'8 9.5
2017-Nov-14 11:48N 55°38' E 015°14'3 9.7
2017-Nov-14 11:30N 55°39' E 015°19'5 9.6
2017-Nov-14 11:00N 55°40' E 015°27'5 9.5
2017-Nov-14 10:30N 55°41' E 015°36'5 9.8
2017-Nov-14 10:00N 55°43' E 015°44'5 9.9
2017-Nov-14 09:30N 55°44' E 015°52'5 9.7
2017-Nov-14 09:00N 55°45' E 016°01'5 9.9
2017-Nov-14 08:30N 55°46' E 016°09'510.1
2017-Nov-14 08:00N 55°48' E 016°18'510.0
2017-Nov-14 07:30N 55°49' E 016°27'5 9.9
2017-Nov-14 07:00N 55°50' E 016°35'314 9.6
2017-Nov-12 22:13N 59°38' E 023°21'2 9.4
2017-Nov-12 22:00N 59°38' E 023°25'5 9.4
2017-Nov-12 21:31N 59°40' E 023°33'5 9.3
2017-Nov-12 20:59N 59°41' E 023°43'4 9.1
2017-Nov-12 20:30N 59°42' E 023°51'5 9.1
2017-Nov-12 20:00N 59°44' E 023°60'7 9.2
2017-Nov-12 19:12N 59°46' E 024°13'2 9.0
2017-Nov-12 18:56N 59°46' E 024°18'4 8.7
2017-Nov-12 18:31N 59°47' E 024°25'5 9.1
2017-Nov-12 18:01N 59°48' E 024°34'5 9.2
2017-Nov-12 17:31N 59°49' E 024°43'5 9.5
2017-Nov-12 17:00N 59°49' E 024°53'5 9.6
2017-Nov-12 16:31N 59°51' E 025°02'6 9.8
2017-Nov-12 15:52N 59°52' E 025°14'30 9.7
2017-Nov-12 12:48N 59°59' E 026°12'3 9.8
2017-Nov-12 12:31N 59°60' E 026°17'5 9.7
2017-Nov-12 12:01N 60°01' E 026°27'5 9.5
2017-Nov-12 11:31N 60°02' E 026°36'5 9.9
2017-Nov-12 11:00N 60°01' E 026°46'5 9.8
2017-Nov-12 10:31N 59°60' E 026°56'5 9.0
2017-Nov-12 10:01N 59°60' E 027°05'4 8.8
2017-Nov-12 09:31N 60°02' E 027°12'4 8.5
2017-Nov-12 09:01N 60°04' E 027°20'5 9.4
2017-Nov-12 08:30N 60°07' E 027°28'3 6.4
2017-Nov-12 08:01N 60°08' E 027°33'4 7.7
2017-Nov-12 07:30N 60°10' E 027°40'4 7.8
2017-Nov-12 07:01N 60°12' E 027°47'5 9.3
2017-Nov-12 06:30N 60°11' E 027°56'5 9.8
2017-Nov-12 06:01N 60°09' E 028°05'5 9.9
2017-Nov-12 05:31N 60°08' E 028°15'510.2
2017-Nov-12 05:00N 60°05' E 028°24'510.1
2017-Nov-12 04:30N 60°03' E 028°33'4 7.3
2017-Nov-12 04:01N 60°00' E 028°36'5 9.9
2017-Nov-12 03:30N 59°55' E 028°33'4 8.5
2017-Nov-12 03:00N 59°52' E 028°28'510.0
2017-Nov-12 02:30N 59°47' E 028°25'5 9.0
2017-Nov-12 02:00N 59°43' E 028°25'1 2.1
2017-Nov-12 01:30N 59°42' E 028°26'0 0.0
2017-Nov-12 00:55N 59°42' E 028°26'0 0.0
2017-Nov-12 00:28N 59°42' E 028°26'0 0.0
2017-Nov-11 23:58N 59°42' E 028°26'0 0.0
2017-Nov-11 23:28N 59°42' E 028°26'0 0.0
2017-Nov-11 22:58N 59°42' E 028°26'0 0.0
2017-Nov-11 22:25N 59°42' E 028°26'0 0.0
2017-Nov-11 21:58N 59°42' E 028°26'0 0.0
2017-Nov-11 21:25N 59°42' E 028°26'0 0.0
2017-Nov-11 20:58N 59°42' E 028°26'0 0.0
2017-Nov-11 20:28N 59°42' E 028°26'0 0.0
2017-Nov-11 19:46N 59°42' E 028°26'0 0.0
2017-Nov-11 19:28N 59°42' E 028°26'0 0.0
2017-Nov-11 18:58N 59°42' E 028°26'0 0.0
2017-Nov-11 18:19N 59°42' E 028°26'0 0.0
2017-Nov-11 17:58N 59°42' E 028°26'0 0.0
2017-Nov-11 17:19N 59°42' E 028°26'0 0.0
2017-Nov-11 16:49N 59°42' E 028°26'0 0.0
2017-Nov-11 16:22N 59°42' E 028°26'0 0.0
2017-Nov-11 15:52N 59°42' E 028°26'0 0.0
2017-Nov-11 15:22N 59°42' E 028°26'0 0.0
2017-Nov-11 14:52N 59°42' E 028°26'0 0.0
2017-Nov-11 14:22N 59°42' E 028°26'0 0.0
2017-Nov-11 13:49N 59°42' E 028°26'0 0.0
2017-Nov-11 13:25N 59°42' E 028°26'0 0.0
2017-Nov-11 12:55N 59°42' E 028°26'0 0.0
2017-Nov-11 12:25N 59°42' E 028°26'0 0.0
2017-Nov-11 11:55N 59°42' E 028°26'0 0.0
2017-Nov-11 11:25N 59°42' E 028°26'0 0.0
2017-Nov-11 10:55N 59°42' E 028°26'0 0.0
2017-Nov-11 10:25N 59°42' E 028°26'0 0.0
2017-Nov-11 09:58N 59°42' E 028°26'0 0.0
2017-Nov-11 09:28N 59°42' E 028°26'0 0.0
2017-Nov-11 08:55N 59°42' E 028°26'0 0.0
2017-Nov-11 08:28N 59°42' E 028°26'0 0.0
2017-Nov-11 07:58N 59°42' E 028°26'0 0.0
2017-Nov-11 07:28N 59°42' E 028°26'0 0.0
2017-Nov-11 06:58N 59°42' E 028°26'0 0.0
2017-Nov-11 06:28N 59°42' E 028°26'0 0.0
2017-Nov-11 05:58N 59°42' E 028°26'0 0.0
2017-Nov-11 05:28N 59°42' E 028°26'0 0.0
2017-Nov-11 04:49N 59°42' E 028°26'0 0.0
2017-Nov-11 04:28N 59°42' E 028°26'0 0.0
2017-Nov-11 03:58N 59°42' E 028°26'0 0.0
2017-Nov-11 03:19N 59°42' E 028°26'0 0.0
2017-Nov-11 02:46N 59°42' E 028°26'0 0.0
2017-Nov-11 02:19N 59°42' E 028°26'0 0.0
2017-Nov-11 01:52N 59°42' E 028°26'0 0.0
2017-Nov-11 01:22N 59°42' E 028°26'0 0.0
2017-Nov-11 00:52N 59°42' E 028°26'0 0.0
2017-Nov-11 00:22N 59°42' E 028°26'0 0.0
2017-Nov-10 23:52N 59°42' E 028°26'0 0.0
2017-Nov-10 23:22N 59°42' E 028°26'0 0.0
2017-Nov-10 22:55N 59°42' E 028°26'0 0.0
2017-Nov-10 22:25N 59°42' E 028°26'0 0.0
2017-Nov-10 21:55N 59°42' E 028°26'0 0.0
2017-Nov-10 21:25N 59°42' E 028°26'0 0.0
2017-Nov-10 20:52N 59°42' E 028°26'0 0.0
2017-Nov-10 20:28N 59°42' E 028°26'0 0.0
2017-Nov-10 19:58N 59°42' E 028°26'0 0.0
2017-Nov-10 19:30N 59°42' E 028°26'0 0.0
2017-Nov-10 19:00N 59°42' E 028°26'0 0.0
2017-Nov-10 18:30N 59°42' E 028°26'0 0.0
2017-Nov-10 18:00N 59°42' E 028°26'0 0.0
2017-Nov-10 17:30N 59°42' E 028°26'0 0.0
2017-Nov-10 16:59N 59°42' E 028°26'0 0.0
2017-Nov-10 16:30N 59°42' E 028°26'0 0.0
2017-Nov-10 16:00N 59°42' E 028°26'0 0.0
2017-Nov-10 15:30N 59°42' E 028°26'0 0.0
2017-Nov-10 15:00N 59°42' E 028°26'0 0.0
2017-Nov-10 14:30N 59°42' E 028°26'0 0.0
2017-Nov-10 14:00N 59°42' E 028°26'0 0.2
2017-Nov-10 13:30N 59°42' E 028°25'1 3.0
2017-Nov-10 13:01N 59°43' E 028°23'3 6.0
2017-Nov-10 12:30N 59°43' E 028°17'4 8.4
2017-Nov-10 12:00N 59°46' E 028°14'510.7
2017-Nov-10 11:31N 59°52' E 028°11'510.3
2017-Nov-10 11:00N 59°57' E 028°09'510.1
2017-Nov-10 10:30N 60°02' E 028°07'510.2
2017-Nov-10 10:01N 60°07' E 028°06'4 8.8
2017-Nov-10 09:31N 60°09' E 027°59'510.3
2017-Nov-10 09:01N 60°10' E 027°49'510.1
2017-Nov-10 08:31N 60°09' E 027°39'511.0
2017-Nov-10 08:01N 60°06' E 027°30'510.9
2017-Nov-10 07:31N 60°03' E 027°21'510.9
2017-Nov-10 07:01N 60°00' E 027°11'510.5
2017-Nov-10 06:31N 59°58' E 027°02'510.1
2017-Nov-10 06:01N 59°59' E 026°52'510.3
2017-Nov-10 05:31N 59°59' E 026°42'510.5
2017-Nov-10 05:01N 59°58' E 026°32'510.8
2017-Nov-10 04:31N 59°57' E 026°21'3110.9
2017-Nov-10 01:39N 59°49' E 025°22'210.6
2017-Nov-10 01:31N 59°48' E 025°19'610.8
2017-Nov-10 00:58N 59°47' E 025°07'510.9
2017-Nov-10 00:31N 59°46' E 024°58'510.4
2017-Nov-10 00:01N 59°42' E 024°50'611.1
2017-Nov-09 23:31N 59°37' E 024°48'2 4.0
2017-Nov-09 22:59N 59°35' E 024°49'0 0.1
2017-Nov-09 22:30N 59°35' E 024°49'0 0.0
2017-Nov-09 22:01N 59°35' E 024°49'0 0.9
2017-Nov-09 21:30N 59°35' E 024°48'5 9.1
2017-Nov-09 21:01N 59°38' E 024°41'611.5
2017-Nov-09 20:30N 59°38' E 024°29'611.9
2017-Nov-09 20:00N 59°37' E 024°18'711.9
2017-Nov-09 19:28N 59°35' E 024°05'1311.6
2017-Nov-09 18:20N 59°32' E 023°41'411.5
2017-Nov-09 18:00N 59°31' E 023°33'  
Track history (hours):
 
Tides and Currents Weather Stations Pressure Air Temp Water Temp Dewpoint Dewpoint Depression Visibility Wind Speed Wind Dir Waves Ship Positions

Kathy C

Last reported at 2017-Nov-19 06:48 UTC. Time now 2017-Nov-19 10:49 UTC.
Position N 46°55' W 006°51'.

Length 106 m; draft 6.8 m.

Type: Cargo ship. MMSI: 235075591.

Date/timePositionNaut miles runAvg speedWind from/ knotsBaromVisibWave heightAir tempDewpointWater temp
2017-Nov-19 06:48N 46°55' W 006°51'410.2
2017-Nov-19 06:22N 46°59' W 006°49'810.1
2017-Nov-19 05:37N 47°06' W 006°45'312.9
2017-Nov-19 05:22N 47°09' W 006°44'4 8.8
2017-Nov-19 04:52N 47°13' W 006°42'4 9.6
2017-Nov-19 04:26N 47°17' W 006°40'4 9.5
2017-Nov-19 04:00N 47°21' W 006°38'6 9.1
2017-Nov-19 03:20N 47°27' W 006°35'3 9.2
2017-Nov-19 02:59N 47°30' W 006°33'5 9.2
2017-Nov-19 02:30N 47°34' W 006°31'4 8.7
2017-Nov-19 01:59N 47°38' W 006°29'4 8.6
2017-Nov-19 01:30N 47°42' W 006°27'6 8.9
2017-Nov-19 00:51N 47°48' W 006°25'4 9.2
2017-Nov-19 00:22N 47°52' W 006°23'7 9.6
2017-Nov-18 23:37N 47°59' W 006°20'1 9.8
2017-Nov-18 23:29N 48°00' W 006°19'510.1
2017-Nov-18 23:01N 48°05' W 006°17'510.5
2017-Nov-18 22:30N 48°10' W 006°15'611.1
2017-Nov-18 21:58N 48°15' W 006°12'511.2
2017-Nov-18 21:31N 48°20' W 006°09'1111.6
2017-Nov-18 20:33N 48°31' W 006°04'211.5
2017-Nov-18 20:22N 48°33' W 006°03'1111.3
2017-Nov-18 19:24N 48°43' W 005°56'510.8
2017-Nov-18 18:58N 48°47' W 005°53'610.4
2017-Nov-18 18:25N 48°52' W 005°49'4 9.4
2017-Nov-18 18:00N 48°55' W 005°46'710.0
2017-Nov-18 17:20N 48°59' W 005°37'2 6.9
2017-Nov-18 16:59N 49°00' W 005°34'5 8.3
2017-Nov-18 16:22N 49°03' W 005°27'8 8.2
2017-Nov-18 15:24N 49°07' W 005°17'4 8.3
2017-Nov-18 14:52N 49°09' W 005°11'6 8.5
2017-Nov-18 14:12N 49°12' W 005°03'7 9.0
2017-Nov-18 13:26N 49°15' W 004°54'6 9.6
2017-Nov-18 12:50N 49°18' W 004°47'310.0
2017-Nov-18 12:30N 49°20' W 004°42'510.5
2017-Nov-18 12:00N 49°23' W 004°35'610.8
2017-Nov-18 11:30N 49°25' W 004°28'911.1
2017-Nov-18 10:43N 49°30' W 004°16'311.4
2017-Nov-18 10:29N 49°31' W 004°13'511.1
2017-Nov-18 10:01N 49°34' W 004°06'1110.9
2017-Nov-18 09:01N 49°39' W 003°51'110.3
2017-Nov-18 08:56N 49°40' W 003°50'25 9.4
2017-Nov-18 06:18N 49°52' W 003°17'4 8.6
2017-Nov-18 05:51N 49°54' W 003°12'3 8.6
2017-Nov-18 05:28N 49°55' W 003°08'4 8.8
2017-Nov-18 05:00N 49°58' W 003°02'5 9.3
2017-Nov-18 04:30N 49°60' W 002°56'8 9.9
2017-Nov-18 03:42N 50°02' W 002°44'310.8
2017-Nov-18 03:26N 50°03' W 002°40'3012.7
2017-Nov-18 01:05N 50°11' W 001°55'113.6
2017-Nov-18 00:59N 50°11' W 001°53'813.3
2017-Nov-18 00:21N 50°13' W 001°40'812.6
2017-Nov-17 23:45N 50°15' W 001°28'312.0
2017-Nov-17 23:29N 50°16' W 001°24'47 8.6
2017-Nov-17 17:59N 50°28' W 000°12'5 9.8
2017-Nov-17 17:31N 50°29' W 000°05'510.5
2017-Nov-17 17:00N 50°31' E 000°03'611.1
2017-Nov-17 16:30N 50°32' E 000°12'611.4
2017-Nov-17 16:01N 50°34' E 000°20'611.8
2017-Nov-17 15:30N 50°35' E 000°29'611.4
2017-Nov-17 15:00N 50°38' E 000°37'611.4
2017-Nov-17 14:30N 50°41' E 000°44'611.1
2017-Nov-17 14:00N 50°45' E 000°51'510.7
2017-Nov-17 13:30N 50°48' E 000°58'22 8.9
2017-Nov-17 11:03N 51°02' E 001°24'0 8.3
2017-Nov-17 11:00N 51°03' E 001°25'5 8.9
2017-Nov-17 10:30N 51°06' E 001°30'5 9.4
2017-Nov-17 10:00N 51°08' E 001°36'5 9.8
2017-Nov-17 09:30N 51°11' E 001°42'510.9
2017-Nov-17 09:00N 51°16' E 001°47'612.1
2017-Nov-17 08:31N 51°21' E 001°52'612.7
2017-Nov-17 08:00N 51°27' E 001°57'612.6
2017-Nov-17 07:30N 51°31' E 002°04'612.4
2017-Nov-17 07:00N 51°36' E 002°10'249 9.3
2017-Nov-16 04:06N 54°02' E 007°44'2 9.9
2017-Nov-16 03:57N 54°02' E 007°47'510.4
2017-Nov-16 03:30N 54°01' E 007°55'510.7
2017-Nov-16 03:00N 54°01' E 008°04'510.5
2017-Nov-16 02:31N 54°00' E 008°13'611.0
2017-Nov-16 02:00N 53°60' E 008°22'613.0
2017-Nov-16 01:30N 53°58' E 008°33'612.3
2017-Nov-16 01:00N 53°54' E 008°41'611.2
2017-Nov-16 00:30N 53°51' E 008°48'510.3
2017-Nov-16 00:00N 53°51' E 008°57'5 9.1
2017-Nov-15 23:30N 53°52' E 009°04'3 6.3
2017-Nov-15 23:01N 53°54' E 009°09'0 0.0
2017-Nov-15 22:30N 53°54' E 009°09'0 0.3
2017-Nov-15 22:01N 53°54' E 009°09'3 5.9
2017-Nov-15 21:30N 53°56' E 009°13'4 7.9
2017-Nov-15 21:00N 53°59' E 009°17'4 8.2
2017-Nov-15 20:30N 54°03' E 009°18'4 8.2
2017-Nov-15 20:00N 54°07' E 009°20'3 5.4
2017-Nov-15 19:30N 54°09' E 009°22'3 6.6
2017-Nov-15 19:00N 54°11' E 009°27'3 6.9
2017-Nov-15 18:30N 54°12' E 009°33'0 0.0
2017-Nov-15 18:00N 54°12' E 009°33'0 0.9
2017-Nov-15 17:30N 54°12' E 009°33'3 6.0
2017-Nov-15 17:00N 54°14' E 009°37'4 7.4
2017-Nov-15 16:30N 54°17' E 009°40'3 7.0
2017-Nov-15 16:01N 54°20' E 009°44'40 4.6
2017-Nov-15 07:20N 54°35' E 010°48'310.7
2017-Nov-15 07:00N 54°36' E 010°54'510.8
2017-Nov-15 06:30N 54°36' E 011°03'510.4
2017-Nov-15 06:00N 54°36' E 011°12'510.3
2017-Nov-15 05:30N 54°34' E 011°20'5 9.8
2017-Nov-15 05:00N 54°32' E 011°28'510.1
2017-Nov-15 04:30N 54°30' E 011°36'510.3
2017-Nov-15 04:00N 54°27' E 011°44'510.2
2017-Nov-15 03:30N 54°27' E 011°52'85 9.5
2017-Nov-14 18:36N 55°04' E 014°03'3 7.5
2017-Nov-14 18:16N 55°06' E 014°07'3 7.1
2017-Nov-14 17:52N 55°08' E 014°10'3 7.2
2017-Nov-14 17:30N 55°10' E 014°13'4 6.7
2017-Nov-14 16:52N 55°13' E 014°18'5 6.8
2017-Nov-14 16:11N 55°17' E 014°23'1 7.3
2017-Nov-14 16:00N 55°18' E 014°25'4 7.2
2017-Nov-14 15:30N 55°21' E 014°28'4 7.8
2017-Nov-14 15:00N 55°24' E 014°33'4 7.7
2017-Nov-14 14:30N 55°26' E 014°37'4 7.9
2017-Nov-14 13:59N 55°29' E 014°43'5 8.6
2017-Nov-14 13:26N 55°31' E 014°51'7 9.0
2017-Nov-14 12:40N 55°34' E 015°01'8 9.5
2017-Nov-14 11:48N 55°38' E 015°14'3 9.7
2017-Nov-14 11:30N 55°39' E 015°19'5 9.6
2017-Nov-14 11:00N 55°40' E 015°27'5 9.5
2017-Nov-14 10:30N 55°41' E 015°36'5 9.8
2017-Nov-14 10:00N 55°43' E 015°44'5 9.9
2017-Nov-14 09:30N 55°44' E 015°52'5 9.7
2017-Nov-14 09:00N 55°45' E 016°01'5 9.9
2017-Nov-14 08:30N 55°46' E 016°09'510.1
2017-Nov-14 08:00N 55°48' E 016°18'510.0
2017-Nov-14 07:30N 55°49' E 016°27'5 9.9
2017-Nov-14 07:00N 55°50' E 016°35'314 9.6
2017-Nov-12 22:13N 59°38' E 023°21'2 9.4
2017-Nov-12 22:00N 59°38' E 023°25'5 9.4
2017-Nov-12 21:31N 59°40' E 023°33'5 9.3
2017-Nov-12 20:59N 59°41' E 023°43'4 9.1
2017-Nov-12 20:30N 59°42' E 023°51'5 9.1
2017-Nov-12 20:00N 59°44' E 023°60'7 9.2
2017-Nov-12 19:12N 59°46' E 024°13'2 9.0
2017-Nov-12 18:56N 59°46' E 024°18'4 8.7
2017-Nov-12 18:31N 59°47' E 024°25'5 9.1
2017-Nov-12 18:01N 59°48' E 024°34'5 9.2
2017-Nov-12 17:31N 59°49' E 024°43'5 9.5
2017-Nov-12 17:00N 59°49' E 024°53'5 9.6
2017-Nov-12 16:31N 59°51' E 025°02'6 9.8
2017-Nov-12 15:52N 59°52' E 025°14'30 9.7
2017-Nov-12 12:48N 59°59' E 026°12'3 9.8
2017-Nov-12 12:31N 59°60' E 026°17'5 9.7
2017-Nov-12 12:01N 60°01' E 026°27'5 9.5
2017-Nov-12 11:31N 60°02' E 026°36'5 9.9
2017-Nov-12 11:00N 60°01' E 026°46'5 9.8
2017-Nov-12 10:31N 59°60' E 026°56'5 9.0
2017-Nov-12 10:01N 59°60' E 027°05'4 8.8
2017-Nov-12 09:31N 60°02' E 027°12'4 8.5
2017-Nov-12 09:01N 60°04' E 027°20'5 9.4
2017-Nov-12 08:30N 60°07' E 027°28'3 6.4
2017-Nov-12 08:01N 60°08' E 027°33'4 7.7
2017-Nov-12 07:30N 60°10' E 027°40'4 7.8
2017-Nov-12 07:01N 60°12' E 027°47'5 9.3
2017-Nov-12 06:30N 60°11' E 027°56'5 9.8
2017-Nov-12 06:01N 60°09' E 028°05'5 9.9
2017-Nov-12 05:31N 60°08' E 028°15'510.2
2017-Nov-12 05:00N 60°05' E 028°24'510.1
2017-Nov-12 04:30N 60°03' E 028°33'4 7.3
2017-Nov-12 04:01N 60°00' E 028°36'5 9.9
2017-Nov-12 03:30N 59°55' E 028°33'4 8.5
2017-Nov-12 03:00N 59°52' E 028°28'510.0
2017-Nov-12 02:30N 59°47' E 028°25'5 9.0
2017-Nov-12 02:00N 59°43' E 028°25'1 2.1
2017-Nov-12 01:30N 59°42' E 028°26'0 0.0
2017-Nov-12 00:55N 59°42' E 028°26'0 0.0
2017-Nov-12 00:28N 59°42' E 028°26'0 0.0
2017-Nov-11 23:58N 59°42' E 028°26'0 0.0
2017-Nov-11 23:28N 59°42' E 028°26'0 0.0
2017-Nov-11 22:58N 59°42' E 028°26'0 0.0
2017-Nov-11 22:25N 59°42' E 028°26'0 0.0
2017-Nov-11 21:58N 59°42' E 028°26'0 0.0
2017-Nov-11 21:25N 59°42' E 028°26'0 0.0
2017-Nov-11 20:58N 59°42' E 028°26'0 0.0
2017-Nov-11 20:28N 59°42' E 028°26'0 0.0
2017-Nov-11 19:46N 59°42' E 028°26'0 0.0
2017-Nov-11 19:28N 59°42' E 028°26'0 0.0
2017-Nov-11 18:58N 59°42' E 028°26'0 0.0
2017-Nov-11 18:19N 59°42' E 028°26'0 0.0
2017-Nov-11 17:58N 59°42' E 028°26'0 0.0
2017-Nov-11 17:19N 59°42' E 028°26'0 0.0
2017-Nov-11 16:49N 59°42' E 028°26'0 0.0
2017-Nov-11 16:22N 59°42' E 028°26'0 0.0
2017-Nov-11 15:52N 59°42' E 028°26'0 0.0
2017-Nov-11 15:22N 59°42' E 028°26'0 0.0
2017-Nov-11 14:52N 59°42' E 028°26'0 0.0
2017-Nov-11 14:22N 59°42' E 028°26'0 0.0
2017-Nov-11 13:49N 59°42' E 028°26'0 0.0
2017-Nov-11 13:25N 59°42' E 028°26'0 0.0
2017-Nov-11 12:55N 59°42' E 028°26'0 0.0
2017-Nov-11 12:25N 59°42' E 028°26'0 0.0
2017-Nov-11 11:55N 59°42' E 028°26'0 0.0
2017-Nov-11 11:25N 59°42' E 028°26'0 0.0
2017-Nov-11 10:55N 59°42' E 028°26'0 0.0
2017-Nov-11 10:25N 59°42' E 028°26'0 0.0
2017-Nov-11 09:58N 59°42' E 028°26'0 0.0
2017-Nov-11 09:28N 59°42' E 028°26'0 0.0
2017-Nov-11 08:55N 59°42' E 028°26'0 0.0
2017-Nov-11 08:28N 59°42' E 028°26'0 0.0
2017-Nov-11 07:58N 59°42' E 028°26'0 0.0
2017-Nov-11 07:28N 59°42' E 028°26'0 0.0
2017-Nov-11 06:58N 59°42' E 028°26'0 0.0
2017-Nov-11 06:28N 59°42' E 028°26'0 0.0
2017-Nov-11 05:58N 59°42' E 028°26'0 0.0
2017-Nov-11 05:28N 59°42' E 028°26'0 0.0
2017-Nov-11 04:49N 59°42' E 028°26'0 0.0
2017-Nov-11 04:28N 59°42' E 028°26'0 0.0
2017-Nov-11 03:58N 59°42' E 028°26'0 0.0
2017-Nov-11 03:19N 59°42' E 028°26'0 0.0
2017-Nov-11 02:46N 59°42' E 028°26'0 0.0
2017-Nov-11 02:19N 59°42' E 028°26'0 0.0
2017-Nov-11 01:52N 59°42' E 028°26'0 0.0
2017-Nov-11 01:22N 59°42' E 028°26'0 0.0
2017-Nov-11 00:52N 59°42' E 028°26'0 0.0
2017-Nov-11 00:22N 59°42' E 028°26'0 0.0
2017-Nov-10 23:52N 59°42' E 028°26'0 0.0
2017-Nov-10 23:22N 59°42' E 028°26'0 0.0
2017-Nov-10 22:55N 59°42' E 028°26'0 0.0
2017-Nov-10 22:25N 59°42' E 028°26'0 0.0
2017-Nov-10 21:55N 59°42' E 028°26'0 0.0
2017-Nov-10 21:25N 59°42' E 028°26'0 0.0
2017-Nov-10 20:52N 59°42' E 028°26'0 0.0
2017-Nov-10 20:28N 59°42' E 028°26'0 0.0
2017-Nov-10 19:58N 59°42' E 028°26'0 0.0
2017-Nov-10 19:30N 59°42' E 028°26'0 0.0
2017-Nov-10 19:00N 59°42' E 028°26'0 0.0
2017-Nov-10 18:30N 59°42' E 028°26'0 0.0
2017-Nov-10 18:00N 59°42' E 028°26'0 0.0
2017-Nov-10 17:30N 59°42' E 028°26'0 0.0
2017-Nov-10 16:59N 59°42' E 028°26'0 0.0
2017-Nov-10 16:30N 59°42' E 028°26'0 0.0
2017-Nov-10 16:00N 59°42' E 028°26'0 0.0
2017-Nov-10 15:30N 59°42' E 028°26'0 0.0
2017-Nov-10 15:00N 59°42' E 028°26'0 0.0
2017-Nov-10 14:30N 59°42' E 028°26'0 0.0
2017-Nov-10 14:00N 59°42' E 028°26'0 0.2
2017-Nov-10 13:30N 59°42' E 028°25'1 3.0
2017-Nov-10 13:01N 59°43' E 028°23'3 6.0
2017-Nov-10 12:30N 59°43' E 028°17'4 8.4
2017-Nov-10 12:00N 59°46' E 028°14'510.7
2017-Nov-10 11:31N 59°52' E 028°11'510.3
2017-Nov-10 11:00N 59°57' E 028°09'510.1
2017-Nov-10 10:30N 60°02' E 028°07'510.2
2017-Nov-10 10:01N 60°07' E 028°06'4 8.8
2017-Nov-10 09:31N 60°09' E 027°59'510.3
2017-Nov-10 09:01N 60°10' E 027°49'510.1
2017-Nov-10 08:31N 60°09' E 027°39'511.0
2017-Nov-10 08:01N 60°06' E 027°30'510.9
2017-Nov-10 07:31N 60°03' E 027°21'510.9
2017-Nov-10 07:01N 60°00' E 027°11'510.5
2017-Nov-10 06:31N 59°58' E 027°02'510.1
2017-Nov-10 06:01N 59°59' E 026°52'510.3
2017-Nov-10 05:31N 59°59' E 026°42'510.5
2017-Nov-10 05:01N 59°58' E 026°32'510.8
2017-Nov-10 04:31N 59°57' E 026°21'3110.9
2017-Nov-10 01:39N 59°49' E 025°22'210.6
2017-Nov-10 01:31N 59°48' E 025°19'610.8
2017-Nov-10 00:58N 59°47' E 025°07'510.9
2017-Nov-10 00:31N 59°46' E 024°58'510.4
2017-Nov-10 00:01N 59°42' E 024°50'611.1
2017-Nov-09 23:31N 59°37' E 024°48'2 4.0
2017-Nov-09 22:59N 59°35' E 024°49'0 0.1
2017-Nov-09 22:30N 59°35' E 024°49'0 0.0
2017-Nov-09 22:01N 59°35' E 024°49'0 0.9
2017-Nov-09 21:30N 59°35' E 024°48'5 9.1
2017-Nov-09 21:01N 59°38' E 024°41'611.5
2017-Nov-09 20:30N 59°38' E 024°29'611.9
2017-Nov-09 20:00N 59°37' E 024°18'711.9
2017-Nov-09 19:28N 59°35' E 024°05'1311.6
2017-Nov-09 18:20N 59°32' E 023°41'411.5
2017-Nov-09 18:00N 59°31' E 023°33'  

Dump ship's entire track history